createdAt,value
2019-01-30T00:01:46.086Z,-1.40
2019-01-30T00:04:33.368Z,-1.34
2019-01-30T00:07:17.865Z,-1.33
2019-01-30T00:09:53.286Z,-1.41
2019-01-30T00:12:31.439Z,-1.41
2019-01-30T00:15:25.882Z,-1.38
2019-01-30T00:18:16.811Z,-1.36
2019-01-30T00:21:07.912Z,-1.34
2019-01-30T00:24:06.774Z,-1.38
2019-01-30T00:26:45.242Z,-1.42
2019-01-30T00:29:19.731Z,-1.39
2019-01-30T00:31:53.838Z,-1.46
2019-01-30T00:34:27.853Z,-1.53
2019-01-30T00:37:18.352Z,-1.41
2019-01-30T00:39:52.769Z,-1.46
2019-01-30T00:42:27.124Z,-1.47
2019-01-30T00:45:01.317Z,-1.52
2019-01-30T00:47:35.640Z,-1.45
2019-01-30T00:50:20.740Z,-1.45
2019-01-30T00:53:06.903Z,-1.46
2019-01-30T00:55:58.397Z,-1.42
2019-01-30T00:58:51.825Z,-1.44
2019-01-30T01:01:25.295Z,-1.48
2019-01-30T01:04:12.277Z,-1.44
2019-01-30T01:06:46.442Z,-1.53
2019-01-30T01:09:30.347Z,-1.45
2019-01-30T01:12:04.691Z,-1.44
2019-01-30T01:14:58.034Z,-1.49
2019-01-30T01:17:31.885Z,-1.61
2019-01-30T01:20:25.712Z,-1.57
2019-01-30T01:22:59.393Z,-1.62
2019-01-30T01:25:33.626Z,-1.60
2019-01-30T01:28:18.936Z,-1.48
2019-01-30T01:31:17.300Z,-1.59
2019-01-30T01:34:07.013Z,-1.57
2019-01-30T01:36:40.695Z,-1.65
2019-01-30T01:39:14.832Z,-1.62
2019-01-30T01:42:10.099Z,-1.60
2019-01-30T01:44:44.025Z,-1.65
2019-01-30T01:47:18.122Z,-1.59
2019-01-30T01:50:10.955Z,-1.58
2019-01-30T01:52:44.940Z,-1.68
2019-01-30T01:55:35.662Z,-1.64
2019-01-30T01:58:09.313Z,-1.67
2019-01-30T02:00:43.172Z,-1.64
2019-01-30T02:03:16.942Z,-1.55
2019-01-30T02:06:03.036Z,-1.55
2019-01-30T02:08:52.489Z,-1.53
2019-01-30T02:11:44.354Z,-1.45
2019-01-30T02:14:33.187Z,-1.44
2019-01-30T02:17:06.653Z,-1.44
2019-01-30T02:19:41.265Z,-1.47
2019-01-30T02:22:26.294Z,-1.42
2019-01-30T02:25:11.908Z,-1.48
2019-01-30T02:27:46.070Z,-1.48
2019-01-30T02:30:21.799Z,-1.49
2019-01-30T02:33:22.105Z,-1.50
2019-01-30T02:35:55.569Z,-1.53
2019-01-30T02:38:29.300Z,-1.50
2019-01-30T02:41:03.697Z,-1.43
2019-01-30T02:43:37.782Z,-1.43
2019-01-30T02:46:11.575Z,-1.41
2019-01-30T02:48:45.256Z,-1.45
2019-01-30T02:51:19.318Z,-1.44
2019-01-30T02:54:10.558Z,-1.42
2019-01-30T02:56:44.388Z,-1.45
2019-01-30T02:59:27.007Z,-1.46
2019-01-30T03:02:25.097Z,-1.33
2019-01-30T03:05:15.334Z,-1.37
2019-01-30T03:07:51.412Z,-1.41
2019-01-30T03:10:25.260Z,-1.39
2019-01-30T03:12:59.500Z,-1.35
2019-01-30T03:15:47.527Z,-1.27
2019-01-30T03:18:21.395Z,-1.36
2019-01-30T03:20:55.870Z,-1.37
2019-01-30T03:23:30.038Z,-1.31
2019-01-30T03:26:05.362Z,-1.29
2019-01-30T03:28:39.192Z,-1.36
2019-01-30T03:31:27.635Z,-1.25
2019-01-30T03:34:13.615Z,-1.25
2019-01-30T03:37:00.772Z,-1.21
2019-01-30T03:39:34.855Z,-1.27
2019-01-30T03:42:10.679Z,-1.23
2019-01-30T03:45:04.039Z,-1.18
2019-01-30T03:47:40.163Z,-1.23
2019-01-30T03:50:14.210Z,-1.19
2019-01-30T03:53:02.737Z,-1.14
2019-01-30T03:55:42.803Z,-1.22
2019-01-30T03:58:16.861Z,-1.20
2019-01-30T04:00:50.458Z,-1.20
2019-01-30T04:03:28.027Z,-1.15
2019-01-30T04:06:02.982Z,-1.25
2019-01-30T04:09:00.525Z,-1.18
2019-01-30T04:11:34.024Z,-1.26
2019-01-30T04:14:07.558Z,-1.23
2019-01-30T04:16:41.272Z,-1.31
2019-01-30T04:19:17.145Z,-1.29
2019-01-30T04:21:51.270Z,-1.33
2019-01-30T04:24:25.842Z,-1.30
2019-01-30T04:27:17.663Z,-1.30
2019-01-30T04:30:22.316Z,-1.27
2019-01-30T04:33:17.907Z,-1.31
2019-01-30T04:35:52.139Z,-1.33
2019-01-30T04:38:26.582Z,-1.36
2019-01-30T04:41:14.712Z,-1.33
2019-01-30T04:44:00.258Z,-1.34
2019-01-30T04:46:45.807Z,-1.36
2019-01-30T04:49:19.368Z,-1.37
2019-01-30T04:51:53.599Z,-1.41
2019-01-30T04:54:27.062Z,-1.37
2019-01-30T04:57:01.184Z,-1.43
2019-01-30T04:59:46.564Z,-1.38
2019-01-30T05:02:20.606Z,-1.40
2019-01-30T05:04:56.165Z,-1.41
2019-01-30T05:07:30.048Z,-1.46
2019-01-30T05:10:14.868Z,-1.46
2019-01-30T05:12:49.312Z,-1.48
2019-01-30T05:15:23.806Z,-1.44
2019-01-30T05:17:57.251Z,-1.45
2019-01-30T05:20:31.301Z,-1.44
2019-01-30T05:23:16.308Z,-1.39
2019-01-30T05:25:50.428Z,-1.41
2019-01-30T05:28:23.863Z,-1.38
2019-01-30T05:31:14.068Z,-1.41
2019-01-30T05:34:01.789Z,-1.36
2019-01-30T05:36:36.491Z,-1.41
2019-01-30T05:39:10.176Z,-1.44
2019-01-30T05:41:43.732Z,-1.44
2019-01-30T05:44:17.144Z,-1.41
2019-01-30T05:46:52.075Z,-1.38
2019-01-30T05:49:25.588Z,-1.45
2019-01-30T05:51:59.445Z,-1.50
2019-01-30T05:54:32.949Z,-1.50
2019-01-30T05:57:07.133Z,-1.48
2019-01-30T05:59:40.991Z,-1.53
2019-01-30T06:02:16.337Z,-1.46
2019-01-30T06:15:49.598Z,-1.68
2019-01-30T06:18:34.753Z,-1.44
2019-01-30T06:21:19.138Z,-1.45
2019-01-30T06:24:04.425Z,-1.36
2019-01-30T06:26:55.656Z,-1.48
2019-01-30T06:29:40.622Z,-1.50
2019-01-30T06:32:21.753Z,-1.52
2019-01-30T06:34:50.280Z,-1.50
2019-01-30T06:37:24.109Z,-1.38
2019-01-30T06:40:19.968Z,-1.43
2019-01-30T06:42:53.759Z,-1.54
2019-01-30T06:45:27.651Z,-1.52
2019-01-30T06:48:11.618Z,-1.46
2019-01-30T06:50:45.338Z,-1.55
2019-01-30T06:53:31.171Z,-1.50
2019-01-30T06:56:22.795Z,-1.46
2019-01-30T06:59:13.984Z,-1.41
2019-01-30T07:02:05.392Z,-1.41
2019-01-30T07:04:49.940Z,-1.32
2019-01-30T07:07:42.130Z,-1.37
2019-01-30T07:10:30.139Z,-1.30
2019-01-30T07:13:03.415Z,-1.39
2019-01-30T07:15:49.583Z,-1.24
2019-01-30T07:18:23.334Z,-1.28
2019-01-30T07:20:57.418Z,-1.24
2019-01-30T07:23:31.238Z,-1.20
2019-01-30T07:26:25.711Z,-1.12
2019-01-30T07:29:11.883Z,-1.14
2019-01-30T07:31:56.844Z,-1.13
2019-01-30T07:34:30.745Z,-1.20
2019-01-30T07:37:22.421Z,-1.03
2019-01-30T07:39:56.530Z,-1.08
2019-01-30T07:42:30.550Z,-1.02
2019-01-30T07:45:24.623Z,-0.96
2019-01-30T07:47:57.414Z,-1.00
2019-01-30T07:50:31.261Z,-0.94
2019-01-30T07:53:05.197Z,-0.95
2019-01-30T07:55:40.034Z,-0.94
2019-01-30T07:58:13.922Z,-0.95
2019-01-30T08:00:47.732Z,-0.89
2019-01-30T08:03:21.810Z,-0.82
2019-01-30T08:06:06.729Z,-0.76
2019-01-30T08:08:57.845Z,-0.79
2019-01-30T08:11:47.672Z,-0.70
2019-01-30T08:14:21.234Z,-0.74
2019-01-30T08:16:55.424Z,-0.61
2019-01-30T08:19:46.303Z,-0.56
2019-01-30T08:22:20.052Z,-0.58
2019-01-30T08:25:08.807Z,-0.53
2019-01-30T08:27:42.556Z,-0.47
2019-01-30T08:30:22.499Z,-0.47
2019-01-30T08:33:04.223Z,-0.44
2019-01-30T08:35:31.967Z,-0.47
2019-01-30T08:38:19.912Z,-0.35
2019-01-30T08:41:04.879Z,-0.31
2019-01-30T08:43:39.147Z,-0.27
2019-01-30T08:46:13.522Z,-0.29
2019-01-30T08:49:05.021Z,-0.10
2019-01-30T08:51:50.094Z,-0.17
2019-01-30T08:54:24.065Z,-0.15
2019-01-30T08:57:09.647Z,-0.07
2019-01-30T09:00:00.949Z,-0.08
2019-01-30T09:02:34.521Z,-0.05
2019-01-30T09:05:09.486Z,-0.07
2019-01-30T09:07:54.243Z,0.04
2019-01-30T09:10:28.160Z,0.01
2019-01-30T09:13:19.582Z,0.13
2019-01-30T09:16:04.804Z,0.16
2019-01-30T09:18:39.526Z,0.18
2019-01-30T09:21:13.330Z,0.18
2019-01-30T09:23:47.802Z,0.22
2019-01-30T09:26:39.039Z,0.28
2019-01-30T09:29:12.943Z,0.23
2019-01-30T09:31:47.691Z,0.26
2019-01-30T09:34:21.248Z,0.30
2019-01-30T09:36:55.709Z,0.27
2019-01-30T09:39:53.147Z,0.43
2019-01-30T09:42:41.537Z,0.44
2019-01-30T09:45:35.057Z,0.47
2019-01-30T09:48:08.717Z,0.41
2019-01-30T09:50:42.603Z,0.47
2019-01-30T09:53:27.810Z,0.55
2019-01-30T09:56:15.485Z,0.59
2019-01-30T09:58:48.579Z,0.49
2019-01-30T10:01:22.396Z,0.45
2019-01-30T10:03:56.263Z,0.46
2019-01-30T10:06:30.033Z,0.57
2019-01-30T10:09:05.566Z,0.61
2019-01-30T10:11:50.439Z,0.63
2019-01-30T10:14:26.098Z,0.68
2019-01-30T10:17:11.651Z,0.75
2019-01-30T10:19:46.132Z,0.76
2019-01-30T10:22:19.894Z,0.86
2019-01-30T10:24:53.306Z,0.88
2019-01-30T10:27:27.412Z,0.89
2019-01-30T10:30:00.835Z,0.89
2019-01-30T10:32:34.961Z,0.84
2019-01-30T10:35:08.385Z,0.80
2019-01-30T10:37:41.817Z,0.77
2019-01-30T10:40:17.005Z,0.89
2019-01-30T10:42:50.965Z,0.89
2019-01-30T10:45:25.040Z,1.02
2019-01-30T10:48:10.026Z,1.08
2019-01-30T10:50:55.032Z,1.11
2019-01-30T10:53:40.173Z,0.99
2019-01-30T10:56:25.664Z,1.01
2019-01-30T10:59:16.014Z,1.08
2019-01-30T11:02:01.191Z,1.13
2019-01-30T11:04:46.378Z,1.12
2019-01-30T11:07:31.711Z,1.31
2019-01-30T11:10:06.125Z,1.28
2019-01-30T11:12:39.518Z,1.31
2019-01-30T11:15:26.067Z,1.38
2019-01-30T11:18:14.346Z,1.39
2019-01-30T11:20:47.801Z,1.25
2019-01-30T11:23:21.462Z,1.34
2019-01-30T11:25:56.999Z,1.47
2019-01-30T11:28:30.693Z,1.47
2019-01-30T11:31:04.267Z,1.48
2019-01-30T11:33:38.020Z,1.48
2019-01-30T11:36:11.613Z,1.48
2019-01-30T11:38:45.339Z,1.47
2019-01-30T11:41:19.234Z,1.50
2019-01-30T11:44:10.495Z,1.37
2019-01-30T11:46:43.302Z,1.37
2019-01-30T11:49:17.396Z,1.39
2019-01-30T11:51:51.085Z,1.35
2019-01-30T11:54:25.141Z,1.41
2019-01-30T11:57:16.005Z,1.54
2019-01-30T11:59:49.835Z,1.57
2019-01-30T12:02:22.527Z,1.66
2019-01-30T12:05:10.651Z,1.74
2019-01-30T12:08:00.772Z,1.81
2019-01-30T12:10:34.586Z,1.81
2019-01-30T12:13:07.998Z,1.89
2019-01-30T12:15:41.785Z,1.82
2019-01-30T12:18:15.853Z,1.86
2019-01-30T12:21:01.049Z,1.80
2019-01-30T12:23:51.530Z,1.86
2019-01-30T12:26:25.327Z,1.78
2019-01-30T12:28:59.617Z,1.72
2019-01-30T12:31:44.781Z,1.76
2019-01-30T12:34:32.255Z,1.67
2019-01-30T12:37:04.258Z,1.61
2019-01-30T12:39:38.009Z,1.58
2019-01-30T12:42:12.031Z,1.63
2019-01-30T12:44:46.266Z,1.57
2019-01-30T12:47:37.309Z,1.59
2019-01-30T12:50:22.128Z,1.63
2019-01-30T12:52:55.909Z,1.63
2019-01-30T12:55:29.961Z,1.65
2019-01-30T12:58:13.883Z,1.67
2019-01-30T13:00:47.247Z,1.64
2019-01-30T13:03:21.314Z,1.72
2019-01-30T13:05:54.772Z,1.71
2019-01-30T13:08:28.880Z,1.69
2019-01-30T13:11:18.840Z,1.79
2019-01-30T13:13:54.661Z,1.68
2019-01-30T13:16:39.814Z,1.71
2019-01-30T13:19:13.347Z,1.69
2019-01-30T13:21:46.785Z,1.73
2019-01-30T13:24:20.561Z,1.70
2019-01-30T13:26:53.828Z,1.65
2019-01-30T13:29:27.738Z,1.72
2019-01-30T13:32:01.852Z,1.80
2019-01-30T13:34:35.468Z,1.87
2019-01-30T13:37:27.308Z,1.92
2019-01-30T13:40:01.109Z,1.94
2019-01-30T13:42:35.030Z,1.85
2019-01-30T13:45:10.229Z,1.88
2019-01-30T13:47:43.661Z,1.91
2019-01-30T13:50:20.032Z,1.98
2019-01-30T13:52:54.145Z,1.96
2019-01-30T13:55:28.158Z,1.95
2019-01-30T13:58:02.246Z,1.94
2019-01-30T14:00:53.918Z,2.04
2019-01-30T14:03:27.449Z,2.02
2019-01-30T14:06:01.583Z,1.94
2019-01-30T14:08:35.357Z,1.98
2019-01-30T14:11:08.812Z,2.04
2019-01-30T14:13:41.566Z,2.04
2019-01-30T14:16:26.359Z,2.18
2019-01-30T14:19:00.434Z,2.18
2019-01-30T14:21:45.160Z,2.26
2019-01-30T14:24:19.310Z,2.23
2019-01-30T14:27:10.856Z,2.31
2019-01-30T14:29:58.363Z,2.29
2019-01-30T14:32:41.792Z,2.41
2019-01-30T14:35:17.335Z,2.29
2019-01-30T14:38:14.848Z,2.24
2019-01-30T14:40:50.174Z,2.24
2019-01-30T14:43:25.900Z,2.21
2019-01-30T14:45:59.955Z,2.22
2019-01-30T14:48:33.396Z,2.16
2019-01-30T14:59:37.539Z,2.03
2019-01-30T15:02:29.003Z,2.04
2019-01-30T15:05:21.959Z,2.08
2019-01-30T15:07:50.153Z,2.07
2019-01-30T15:10:23.794Z,2.06
2019-01-30T15:12:57.792Z,2.04
2019-01-30T15:15:32.122Z,1.97
2019-01-30T15:18:05.856Z,2.01
2019-01-30T15:20:39.546Z,1.98
2019-01-30T15:23:13.214Z,1.92
2019-01-30T15:25:47.371Z,1.88
2019-01-30T15:28:20.776Z,1.85
2019-01-30T15:30:54.588Z,1.79
2019-01-30T15:33:28.393Z,1.80
2019-01-30T15:36:01.571Z,1.78
2019-01-30T15:38:36.133Z,1.78
2019-01-30T15:41:10.121Z,1.79
2019-01-30T15:43:43.474Z,1.83
2019-01-30T15:46:17.376Z,1.80
2019-01-30T15:48:50.013Z,1.74
2019-01-30T15:51:24.017Z,1.74
2019-01-30T15:53:58.051Z,1.72
2019-01-30T15:56:31.785Z,1.59
2019-01-30T15:59:04.934Z,1.56
2019-01-30T16:01:41.488Z,1.52
2019-01-30T16:04:30.995Z,1.56
2019-01-30T16:07:04.479Z,1.50
2019-01-30T16:09:38.299Z,1.45
2019-01-30T16:12:11.286Z,1.49
2019-01-30T16:14:45.512Z,1.43
2019-01-30T16:17:19.639Z,1.42
2019-01-30T16:19:53.138Z,1.39
2019-01-30T16:22:38.980Z,1.44
2019-01-30T16:25:26.444Z,1.39
2019-01-30T16:28:01.683Z,1.36
2019-01-30T16:30:35.387Z,1.38
2019-01-30T16:33:09.164Z,1.42
2019-01-30T16:35:42.875Z,1.39
2019-01-30T16:38:16.609Z,1.36
2019-01-30T16:40:50.700Z,1.34
2019-01-30T16:43:25.028Z,1.35
2019-01-30T16:45:58.428Z,1.35
2019-01-30T16:48:32.180Z,1.28
2019-01-30T16:51:06.685Z,1.22
2019-01-30T16:53:52.892Z,1.25
2019-01-30T16:56:41.399Z,1.21
2019-01-30T16:59:15.510Z,1.17
2019-01-30T17:01:49.307Z,1.12
2019-01-30T17:04:22.715Z,1.03
2019-01-30T17:06:56.774Z,0.96
2019-01-30T17:09:32.164Z,0.94
2019-01-30T17:12:21.118Z,1.00
2019-01-30T17:14:54.868Z,0.89
2019-01-30T17:17:28.190Z,0.87
2019-01-30T17:20:02.039Z,0.86
2019-01-30T17:22:36.043Z,0.86
2019-01-30T17:25:09.754Z,0.80
2019-01-30T17:28:03.421Z,0.85
2019-01-30T17:31:10.072Z,0.82
2019-01-30T17:33:43.202Z,0.80
2019-01-30T17:36:18.857Z,0.78
2019-01-30T17:38:53.092Z,0.77
2019-01-30T17:41:37.455Z,0.75
2019-01-30T17:44:12.893Z,0.68
2019-01-30T17:46:47.647Z,0.70
2019-01-30T17:49:21.662Z,0.72
2019-01-30T17:51:55.132Z,0.71
2019-01-30T17:54:28.896Z,0.65
2019-01-30T17:57:02.991Z,0.67
2019-01-30T17:59:54.582Z,0.77
2019-01-30T18:02:45.578Z,0.73
2019-01-30T18:05:48.861Z,0.72
2019-01-30T18:08:22.746Z,0.72
2019-01-30T18:11:07.851Z,0.72
2019-01-30T18:13:45.075Z,0.70
2019-01-30T18:16:30.802Z,0.71
2019-01-30T18:19:04.755Z,0.71
2019-01-30T18:21:49.662Z,0.69
2019-01-30T18:24:23.579Z,0.71
2019-01-30T18:27:08.792Z,0.76
2019-01-30T18:29:42.925Z,0.74
2019-01-30T18:32:36.566Z,0.79
2019-01-30T18:35:29.769Z,0.84
2019-01-30T18:38:03.224Z,0.81
2019-01-30T18:40:36.357Z,0.75
2019-01-30T18:43:10.604Z,0.78
2019-01-30T18:45:46.293Z,0.80
2019-01-30T18:48:23.945Z,0.82
2019-01-30T18:50:59.676Z,0.81
2019-01-30T18:53:32.884Z,0.76
2019-01-30T18:56:06.121Z,0.80
2019-01-30T18:58:39.563Z,0.86
2019-01-30T19:01:13.499Z,0.86
2019-01-30T19:03:47.608Z,0.90
2019-01-30T19:06:21.048Z,0.86
2019-01-30T19:08:54.474Z,0.86
2019-01-30T19:11:28.933Z,0.86
2019-01-30T19:14:20.051Z,0.92
2019-01-30T19:17:13.826Z,0.89
2019-01-30T19:19:47.658Z,0.91
2019-01-30T19:22:21.731Z,0.87
2019-01-30T19:24:54.356Z,0.79
2019-01-30T19:27:28.339Z,0.78
2019-01-30T19:30:04.418Z,0.80
2019-01-30T19:32:37.829Z,0.85
2019-01-30T19:35:11.646Z,0.85
2019-01-30T19:37:45.736Z,0.90
2019-01-30T19:40:19.867Z,0.93
2019-01-30T19:42:53.661Z,0.93
2019-01-30T19:45:38.439Z,1.00
2019-01-30T19:48:23.726Z,1.05
2019-01-30T19:51:31.697Z,0.97
2019-01-30T19:54:11.182Z,0.96
2019-01-30T19:57:02.266Z,0.98
2019-01-30T19:59:43.796Z,0.98
2019-01-30T20:02:17.520Z,0.97
2019-01-30T20:04:52.630Z,0.98
2019-01-30T20:07:26.689Z,1.06
2019-01-30T20:10:01.680Z,1.08
2019-01-30T20:12:35.762Z,1.09
2019-01-30T20:15:19.851Z,1.12
2019-01-30T20:17:53.291Z,1.07
2019-01-30T20:20:26.790Z,1.07
2019-01-30T20:23:00.929Z,1.04
2019-01-30T20:25:46.150Z,1.10
2019-01-30T20:28:23.642Z,1.07
2019-01-30T20:30:57.256Z,1.12
2019-01-30T20:33:31.327Z,1.05
2019-01-30T20:36:04.572Z,1.03
2019-01-30T20:38:38.678Z,1.11
2019-01-30T20:41:35.479Z,1.23
2019-01-30T20:44:12.197Z,1.10
2019-01-30T20:46:46.489Z,1.14
2019-01-30T20:49:38.228Z,1.27
2019-01-30T20:52:13.821Z,1.21
2019-01-30T20:54:59.478Z,1.22
2019-01-30T20:57:23.879Z,1.23
2019-01-30T21:00:02.968Z,1.22
2019-01-30T21:02:37.929Z,1.20
2019-01-30T21:05:12.929Z,1.19
2019-01-30T21:07:47.703Z,1.18
2019-01-30T21:10:23.868Z,1.23
2019-01-30T21:13:09.316Z,1.28
2019-01-30T21:15:43.172Z,1.23
2019-01-30T21:18:18.288Z,1.28
2019-01-30T21:21:00.497Z,1.24
2019-01-30T21:23:40.066Z,1.33
2019-01-30T21:26:14.882Z,1.27
2019-01-30T22:08:21.682Z,1.15
2019-01-30T22:22:17.430Z,1.27
2019-01-30T23:05:04.305Z,1.23
2019-01-30T23:08:26.080Z,1.20
2019-01-30T23:11:36.078Z,1.21
2019-01-30T23:14:40.940Z,1.22
2019-01-30T23:18:11.230Z,1.17
2019-01-30T23:21:17.615Z,1.15
2019-01-30T23:24:56.992Z,1.15
2019-01-30T23:27:45.522Z,1.08
2019-01-30T23:30:49.018Z,1.10
2019-01-30T23:33:53.123Z,1.14
2019-01-30T23:37:03.862Z,1.13
2019-01-30T23:39:55.308Z,1.07
2019-01-30T23:42:51.458Z,1.11
2019-01-30T23:45:38.510Z,1.11
2019-01-30T23:48:29.066Z,1.12
2019-01-30T23:51:31.314Z,1.06
2019-01-30T23:54:35.366Z,1.10
2019-01-30T23:58:02.303Z,1.17
